TimePST,TemperatureF,Dew PointF,Humidity,Sea Level PressureIn,VisibilityMPH,Wind Direction,Wind SpeedMPH,Gust SpeedMPH,PrecipitationIn,Events,Conditions,WindDirDegrees,DateUTC
12:26 AM,41.0,33.8,76,29.90,10.0,SSW,21.9,31.1,0.00,Rain,Light Rain,200,2012-11-30 08:26:00
12:53 AM,43.0,33.1,68,29.81,10.0,SSW,18.4,26.5,0.01,Rain,Light Rain,200,2012-11-30 08:53:00
1:11 AM,41.0,33.8,76,29.90,6.0,SSW,19.6,32.2,0.01,Rain,Light Rain,200,2012-11-30 09:11:00
1:37 AM,39.2,33.8,81,29.90,4.0,South,18.4,26.5,0.05,Rain,Rain,190,2012-11-30 09:37:00
1:45 AM,39.2,33.8,81,29.89,6.0,SSW,17.3,24.2,0.06,Rain,Light Rain,200,2012-11-30 09:45:00
1:53 AM,39.9,34.0,79,29.82,5.0,SSW,19.6,26.5,0.08,Rain,Rain,200,2012-11-30 09:53:00
2:00 AM,39.2,33.8,81,29.89,3.0,SSW,18.4,28.8,0.03,Rain,Rain,200,2012-11-30 10:00:00
2:27 AM,39.2,33.8,81,29.89,6.0,South,19.6,27.6,0.09,Rain,Light Rain,180,2012-11-30 10:27:00
2:53 AM,39.9,34.0,79,29.79,8.0,South,13.8,23.0,0.10,Rain,Light Rain,180,2012-11-30 10:53:00
3:38 AM,39.2,33.8,81,29.86,3.0,South,19.6,31.1,0.07,Rain,Rain,190,2012-11-30 11:38:00
3:53 AM,39.0,33.1,79,29.78,3.0,SSW,16.1,28.8,0.10,Rain,Rain,200,2012-11-30 11:53:00
4:53 AM,39.0,34.0,82,29.81,2.5,SSW,17.3,27.6,0.14,Rain,Heavy Rain,200,2012-11-30 12:53:00
5:08 AM,39.2,33.8,81,29.83,2.5,SSW,20.7,38.0,0.05,Rain,Rain,200,2012-11-30 13:08:00
5:16 AM,39.2,33.8,81,29.81,4.0,SSW,24.2,35.7,0.06,Rain,Light Rain,200,2012-11-30 13:16:00
5:24 AM,39.2,33.8,81,29.81,8.0,SSW,16.1,35.7,0.06,Rain,Light Rain,210,2012-11-30 13:24:00
5:53 AM,41.0,35.1,79,29.73,7.0,SSW,20.7,26.5,0.07,Rain,Light Rain,200,2012-11-30 13:53:00
6:10 AM,41.0,35.6,81,29.81,4.0,SSW,18.4,29.9,0.02,Rain,Rain,200,2012-11-30 14:10:00
6:53 AM,39.9,34.0,79,29.78,4.0,SSW,17.3,24.2,0.12,Rain,Rain,200,2012-11-30 14:53:00
7:17 AM,39.2,33.8,81,29.86,2.5,SSW,12.7,-,0.08,Rain,Heavy Rain,200,2012-11-30 15:17:00
7:36 AM,39.2,33.8,81,29.86,4.0,South,13.8,19.6,0.14,Rain,Rain,180,2012-11-30 15:36:00
7:53 AM,37.9,33.1,83,29.80,3.0,SSW,12.7,20.7,0.19,Rain,Heavy Rain,200,2012-11-30 15:53:00
8:21 AM,39.2,33.8,81,29.88,2.5,SSW,11.5,18.4,0.08,Rain,Rain,200,2012-11-30 16:21:00
8:45 AM,39.2,33.8,81,29.89,3.0,South,17.3,24.2,0.14,Rain,Rain,190,2012-11-30 16:45:00
8:53 AM,39.0,34.0,82,29.82,2.0,South,18.4,27.6,0.16,Rain,Rain,190,2012-11-30 16:53:00
9:26 AM,39.2,33.8,81,29.89,3.0,SSW,12.7,21.9,0.07,Rain,Rain,200,2012-11-30 17:26:00
9:34 AM,39.2,33.8,81,29.89,2.5,South,18.4,24.2,0.10,Rain,Rain,190,2012-11-30 17:34:00
9:42 AM,39.2,33.8,81,29.89,2.0,South,12.7,24.2,0.12,Rain,Rain,190,2012-11-30 17:42:00
9:53 AM,37.9,33.1,83,29.82,2.5,South,12.7,20.7,0.15,Rain,Rain,190,2012-11-30 17:53:00
10:53 AM,37.9,33.1,83,29.83,2.0,SSW,11.5,19.6,0.21,Rain,Heavy Rain,200,2012-11-30 18:53:00
11:53 AM,36.0,32.0,86,29.85,2.0,South,10.4,-,0.22,Snow,Light Snow,180,2012-11-30 19:53:00
12:03 PM,35.6,32.0,87,29.89,1.8,South,12.7,-,0.04,Snow,Light Snow,180,2012-11-30 20:03:00
12:53 PM,36.0,30.9,82,29.82,1.2,South,11.5,-,0.23,Snow,Light Snow,180,2012-11-30 20:53:00
1:53 PM,39.0,33.1,79,29.82,1.2,South,23.0,34.5,0.20,Rain,Heavy Rain,190,2012-11-30 21:53:00
2:38 PM,37.4,33.8,87,29.92,2.0,South,16.1,21.9,0.18,Rain,Rain,180,2012-11-30 22:38:00
2:45 PM,37.4,32.0,81,29.92,1.8,South,12.7,21.9,0.20,Rain,Rain,180,2012-11-30 22:45:00
2:53 PM,37.9,33.1,83,29.87,2.5,South,13.8,19.6,0.21,Rain,Rain,190,2012-11-30 22:53:00
2:59 PM,37.4,33.8,87,29.91,3.0,SSW,13.8,31.1,0.01,Rain,Light Rain,200,2012-11-30 22:59:00
3:06 PM,39.2,33.8,81,29.90,1.8,South,19.6,32.2,0.01,Rain,Light Rain,190,2012-11-30 23:06:00
3:21 PM,39.2,33.8,81,29.90,3.0,SSW,21.9,33.4,0.01,Rain,Light Rain,200,2012-11-30 23:21:00
3:36 PM,39.2,33.8,81,29.88,6.0,SSW,25.3,40.3,0.01,Rain,Light Rain,200,2012-11-30 23:36:00
3:48 PM,42.8,33.8,70,29.88,10.0,SSW,18.4,34.5,0.01,,Mostly Cloudy,200,2012-11-30 23:48:00
3:53 PM,42.1,34.0,73,29.82,10.0,SSW,17.3,34.5,0.01,,Mostly Cloudy,210,2012-11-30 23:53:00
4:01 PM,42.8,33.8,70,29.88,10.0,SSW,21.9,40.3,N/A,,Scattered Clouds,200,2012-12-01 00:01:00
5:13 PM,42.8,33.8,70,29.89,10.0,SSW,16.1,32.2,N/A,,Mostly Cloudy,200,2012-12-01 01:13:00
5:53 PM,43.0,34.0,71,29.82,10.0,South,17.3,33.4,0.00,Rain,Light Rain,190,2012-12-01 01:53:00
6:25 PM,44.6,33.8,66,29.90,10.0,SSW,18.4,48.3,0.00,,Mostly Cloudy,210,2012-12-01 02:25:00
6:36 PM,42.8,33.8,70,29.90,6.0,South,26.5,40.3,0.00,Rain,Light Rain,190,2012-12-01 02:36:00
6:53 PM,43.0,34.0,71,29.84,10.0,SSW,25.3,43.7,0.00,,Mostly Cloudy,200,2012-12-01 02:53:00
7:39 PM,44.6,32.0,61,29.92,10.0,SSW,24.2,36.8,0.00,,Mostly Cloudy,200,2012-12-01 03:39:00
7:53 PM,44.1,32.0,63,29.87,10.0,SSW,18.4,33.4,0.00,,Scattered Clouds,200,2012-12-01 03:53:00
8:18 PM,42.8,33.8,70,29.94,8.0,South,19.6,29.9,0.00,Rain,Light Rain,190,2012-12-01 04:18:00
8:44 PM,42.8,32.0,66,29.94,10.0,South,21.9,33.4,0.00,Rain,Light Rain,190,2012-12-01 04:44:00
8:53 PM,42.1,33.1,70,29.88,9.0,South,16.1,28.8,0.00,Rain,Light Rain,180,2012-12-01 04:53:00
9:26 PM,42.8,32.0,66,29.95,10.0,South,19.6,32.2,0.00,,Scattered Clouds,190,2012-12-01 05:26:00
9:53 PM,43.0,30.9,62,29.89,10.0,South,23.0,35.7,0.00,,Partly Cloudy,190,2012-12-01 05:53:00
10:53 PM,43.0,33.1,68,29.91,8.0,SSW,18.4,35.7,0.00,Rain,Light Rain,200,2012-12-01 06:53:00
11:17 PM,42.8,30.2,61,29.95,10.0,SSW,23.0,43.7,0.00,,Scattered Clouds,200,2012-12-01 07:17:00
11:53 PM,43.0,30.0,60,29.91,10.0,SSW,21.9,38.0,0.00,,Clear,200,2012-12-01 07:53:00